sensor_id;sensor_type;location;lat;lon;timestamp;P1;durP1;ratioP1;P2;durP2;ratioP2
20320;SDS011;10318;47.674;9.052;2022-08-23T00:01:32;3.90;;;2.10;;
20320;SDS011;10318;47.674;9.052;2022-08-23T00:04:00;6.00;;;2.90;;
20320;SDS011;10318;47.674;9.052;2022-08-23T00:06:27;3.63;;;2.58;;
20320;SDS011;10318;47.674;9.052;2022-08-23T00:08:55;6.28;;;3.05;;
20320;SDS011;10318;47.674;9.052;2022-08-23T00:11:36;3.92;;;2.70;;
20320;SDS011;10318;47.674;9.052;2022-08-23T00:14:23;6.00;;;2.50;;
20320;SDS011;10318;47.674;9.052;2022-08-23T00:16:50;4.22;;;2.88;;
20320;SDS011;10318;47.674;9.052;2022-08-23T00:19:18;5.10;;;2.60;;
20320;SDS011;10318;47.674;9.052;2022-08-23T00:21:45;4.38;;;2.75;;
20320;SDS011;10318;47.674;9.052;2022-08-23T00:24:12;6.55;;;2.53;;
20320;SDS011;10318;47.674;9.052;2022-08-23T00:26:49;3.78;;;2.30;;
20320;SDS011;10318;47.674;9.052;2022-08-23T00:29:17;4.93;;;2.60;;
20320;SDS011;10318;47.674;9.052;2022-08-23T00:31:44;2.80;;;2.50;;
20320;SDS011;10318;47.674;9.052;2022-08-23T00:34:11;4.60;;;2.60;;
20320;SDS011;10318;47.674;9.052;2022-08-23T00:36:38;4.63;;;2.70;;
20320;SDS011;10318;47.674;9.052;2022-08-23T00:39:05;5.30;;;2.28;;
20320;SDS011;10318;47.674;9.052;2022-08-23T00:41:33;4.50;;;2.90;;
20320;SDS011;10318;47.674;9.052;2022-08-23T00:44:00;5.55;;;2.85;;
20320;SDS011;10318;47.674;9.052;2022-08-23T00:46:47;7.05;;;2.90;;
20320;SDS011;10318;47.674;9.052;2022-08-23T00:49:33;5.43;;;2.83;;
20320;SDS011;10318;47.674;9.052;2022-08-23T00:52:19;4.95;;;2.72;;
20320;SDS011;10318;47.674;9.052;2022-08-23T00:54:48;4.00;;;2.50;;
20320;SDS011;10318;47.674;9.052;2022-08-23T00:57:16;7.43;;;2.60;;
20320;SDS011;10318;47.674;9.052;2022-08-23T00:59:44;7.00;;;2.67;;
20320;SDS011;10318;47.674;9.052;2022-08-23T01:02:11;4.82;;;2.72;;
20320;SDS011;10318;47.674;9.052;2022-08-23T01:04:50;5.95;;;2.60;;
20320;SDS011;10318;47.674;9.052;2022-08-23T01:07:38;4.40;;;2.33;;
20320;SDS011;10318;47.674;9.052;2022-08-23T01:10:15;4.85;;;2.58;;
20320;SDS011;10318;47.674;9.052;2022-08-23T01:12:48;2.83;;;2.40;;
20320;SDS011;10318;47.674;9.052;2022-08-23T01:15:40;8.55;;;3.45;;
20320;SDS011;10318;47.674;9.052;2022-08-23T01:18:05;3.67;;;2.80;;
20320;SDS011;10318;47.674;9.052;2022-08-23T01:20:37;10.50;;;3.00;;
20320;SDS011;10318;47.674;9.052;2022-08-23T01:25:53;4.30;;;2.63;;
20320;SDS011;10318;47.674;9.052;2022-08-23T01:28:20;4.63;;;2.50;;
20320;SDS011;10318;47.674;9.052;2022-08-23T01:30:47;7.47;;;3.20;;
20320;SDS011;10318;47.674;9.052;2022-08-23T01:33:15;3.00;;;2.50;;
20320;SDS011;10318;47.674;9.052;2022-08-23T01:35:44;4.57;;;2.80;;
20320;SDS011;10318;47.674;9.052;2022-08-23T01:38:13;4.95;;;2.97;;
20320;SDS011;10318;47.674;9.052;2022-08-23T01:40:40;4.95;;;2.70;;
20320;SDS011;10318;47.674;9.052;2022-08-23T01:43:07;4.20;;;2.90;;
20320;SDS011;10318;47.674;9.052;2022-08-23T01:45:35;3.60;;;2.80;;
20320;SDS011;10318;47.674;9.052;2022-08-23T01:48:06;5.95;;;2.70;;
20320;SDS011;10318;47.674;9.052;2022-08-23T01:50:33;4.40;;;2.85;;
20320;SDS011;10318;47.674;9.052;2022-08-23T01:53:00;7.60;;;3.40;;
20320;SDS011;10318;47.674;9.052;2022-08-23T01:55:28;6.82;;;3.10;;
20320;SDS011;10318;47.674;9.052;2022-08-23T01:57:56;5.32;;;3.47;;
20320;SDS011;10318;47.674;9.052;2022-08-23T02:00:25;7.28;;;2.90;;
20320;SDS011;10318;47.674;9.052;2022-08-23T02:02:53;6.88;;;3.30;;
20320;SDS011;10318;47.674;9.052;2022-08-23T02:05:20;6.10;;;2.90;;
20320;SDS011;10318;47.674;9.052;2022-08-23T02:07:47;6.03;;;3.38;;
20320;SDS011;10318;47.674;9.052;2022-08-23T02:10:16;4.43;;;3.00;;
20320;SDS011;10318;47.674;9.052;2022-08-23T02:12:43;4.72;;;3.13;;
20320;SDS011;10318;47.674;9.052;2022-08-23T02:15:13;3.92;;;2.90;;
20320;SDS011;10318;47.674;9.052;2022-08-23T02:17:42;3.72;;;3.40;;
20320;SDS011;10318;47.674;9.052;2022-08-23T02:20:09;4.53;;;2.78;;
20320;SDS011;10318;47.674;9.052;2022-08-23T02:22:36;4.28;;;2.90;;
20320;SDS011;10318;47.674;9.052;2022-08-23T02:25:05;6.57;;;3.17;;
20320;SDS011;10318;47.674;9.052;2022-08-23T02:27:32;6.25;;;3.15;;
20320;SDS011;10318;47.674;9.052;2022-08-23T02:29:59;4.28;;;3.13;;
20320;SDS011;10318;47.674;9.052;2022-08-23T02:32:28;4.32;;;2.78;;
20320;SDS011;10318;47.674;9.052;2022-08-23T02:34:55;5.95;;;3.25;;
20320;SDS011;10318;47.674;9.052;2022-08-23T02:37:33;7.25;;;3.35;;
20320;SDS011;10318;47.674;9.052;2022-08-23T02:40:00;4.03;;;2.97;;
20320;SDS011;10318;47.674;9.052;2022-08-23T02:42:28;3.00;;;2.70;;
20320;SDS011;10318;47.674;9.052;2022-08-23T02:44:55;4.90;;;2.97;;
20320;SDS011;10318;47.674;9.052;2022-08-23T02:47:22;5.35;;;2.88;;
20320;SDS011;10318;47.674;9.052;2022-08-23T02:50:05;4.80;;;3.08;;
20320;SDS011;10318;47.674;9.052;2022-08-23T02:52:33;4.65;;;2.83;;
20320;SDS011;10318;47.674;9.052;2022-08-23T02:55:01;7.40;;;3.10;;
20320;SDS011;10318;47.674;9.052;2022-08-23T02:57:28;5.45;;;2.83;;
20320;SDS011;10318;47.674;9.052;2022-08-23T02:59:59;4.63;;;2.88;;
20320;SDS011;10318;47.674;9.052;2022-08-23T03:02:26;8.23;;;3.10;;
20320;SDS011;10318;47.674;9.052;2022-08-23T03:04:53;3.75;;;2.72;;
20320;SDS011;10318;47.674;9.052;2022-08-23T03:07:20;4.88;;;3.40;;
20320;SDS011;10318;47.674;9.052;2022-08-23T03:09:47;7.65;;;3.25;;
20320;SDS011;10318;47.674;9.052;2022-08-23T03:12:14;4.85;;;3.10;;
20320;SDS011;10318;47.674;9.052;2022-08-23T03:14:46;5.60;;;2.78;;
20320;SDS011;10318;47.674;9.052;2022-08-23T03:17:13;4.63;;;3.00;;
20320;SDS011;10318;47.674;9.052;2022-08-23T03:19:43;5.13;;;2.80;;
20320;SDS011;10318;47.674;9.052;2022-08-23T03:22:09;4.65;;;2.88;;
20320;SDS011;10318;47.674;9.052;2022-08-23T03:24:37;6.65;;;3.25;;
20320;SDS011;10318;47.674;9.052;2022-08-23T03:27:04;5.80;;;3.20;;
20320;SDS011;10318;47.674;9.052;2022-08-23T03:29:33;5.47;;;2.90;;
20320;SDS011;10318;47.674;9.052;2022-08-23T03:32:01;6.28;;;3.50;;
20320;SDS011;10318;47.674;9.052;2022-08-23T03:34:33;6.35;;;3.20;;
20320;SDS011;10318;47.674;9.052;2022-08-23T03:37:00;7.55;;;2.67;;
20320;SDS011;10318;47.674;9.052;2022-08-23T03:39:27;3.70;;;2.80;;
20320;SDS011;10318;47.674;9.052;2022-08-23T03:41:56;6.63;;;3.28;;
20320;SDS011;10318;47.674;9.052;2022-08-23T03:44:25;6.57;;;3.75;;
20320;SDS011;10318;47.674;9.052;2022-08-23T03:46:52;6.10;;;2.80;;
20320;SDS011;10318;47.674;9.052;2022-08-23T03:49:19;3.80;;;2.42;;
20320;SDS011;10318;47.674;9.052;2022-08-23T03:51:50;3.97;;;2.78;;
20320;SDS011;10318;47.674;9.052;2022-08-23T03:54:17;3.30;;;2.88;;
20320;SDS011;10318;47.674;9.052;2022-08-23T03:56:58;5.28;;;2.88;;
20320;SDS011;10318;47.674;9.052;2022-08-23T03:59:30;4.20;;;2.95;;
20320;SDS011;10318;47.674;9.052;2022-08-23T04:01:58;3.58;;;2.58;;
20320;SDS011;10318;47.674;9.052;2022-08-23T04:04:26;4.80;;;2.92;;
20320;SDS011;10318;47.674;9.052;2022-08-23T04:07:19;5.75;;;2.90;;
20320;SDS011;10318;47.674;9.052;2022-08-23T04:09:50;4.97;;;2.85;;
20320;SDS011;10318;47.674;9.052;2022-08-23T04:12:23;7.63;;;3.00;;
20320;SDS011;10318;47.674;9.052;2022-08-23T04:14:49;4.20;;;2.50;;
20320;SDS011;10318;47.674;9.052;2022-08-23T04:17:17;3.38;;;2.55;;
20320;SDS011;10318;47.674;9.052;2022-08-23T04:19:47;6.35;;;2.97;;
20320;SDS011;10318;47.674;9.052;2022-08-23T04:22:16;6.00;;;3.25;;
20320;SDS011;10318;47.674;9.052;2022-08-23T04:24:43;8.70;;;2.97;;
20320;SDS011;10318;47.674;9.052;2022-08-23T04:27:10;5.40;;;2.92;;
20320;SDS011;10318;47.674;9.052;2022-08-23T04:29:38;7.15;;;3.20;;
20320;SDS011;10318;47.674;9.052;2022-08-23T04:32:07;4.85;;;3.13;;
20320;SDS011;10318;47.674;9.052;2022-08-23T04:34:37;4.60;;;3.20;;
20320;SDS011;10318;47.674;9.052;2022-08-23T04:37:06;7.10;;;3.13;;
20320;SDS011;10318;47.674;9.052;2022-08-23T04:39:35;8.05;;;3.58;;
20320;SDS011;10318;47.674;9.052;2022-08-23T04:42:22;5.68;;;3.25;;
20320;SDS011;10318;47.674;9.052;2022-08-23T04:44:49;4.85;;;2.90;;
20320;SDS011;10318;47.674;9.052;2022-08-23T04:47:16;4.60;;;3.35;;
20320;SDS011;10318;47.674;9.052;2022-08-23T04:49:44;5.15;;;3.38;;
20320;SDS011;10318;47.674;9.052;2022-08-23T04:52:12;3.58;;;2.70;;
20320;SDS011;10318;47.674;9.052;2022-08-23T04:54:45;6.40;;;3.30;;
20320;SDS011;10318;47.674;9.052;2022-08-23T04:57:25;5.18;;;3.28;;
20320;SDS011;10318;47.674;9.052;2022-08-23T04:59:52;8.38;;;3.20;;
20320;SDS011;10318;47.674;9.052;2022-08-23T05:02:20;4.13;;;3.33;;
20320;SDS011;10318;47.674;9.052;2022-08-23T05:04:46;6.82;;;3.35;;
20320;SDS011;10318;47.674;9.052;2022-08-23T05:07:13;3.47;;;3.08;;
20320;SDS011;10318;47.674;9.052;2022-08-23T05:09:41;7.15;;;3.22;;
20320;SDS011;10318;47.674;9.052;2022-08-23T05:12:09;4.10;;;3.08;;
20320;SDS011;10318;47.674;9.052;2022-08-23T05:14:36;6.55;;;3.33;;
20320;SDS011;10318;47.674;9.052;2022-08-23T05:17:03;5.82;;;3.25;;
20320;SDS011;10318;47.674;9.052;2022-08-23T05:19:33;7.15;;;3.28;;
20320;SDS011;10318;47.674;9.052;2022-08-23T05:22:04;5.15;;;3.50;;
20320;SDS011;10318;47.674;9.052;2022-08-23T05:24:55;4.70;;;3.25;;
20320;SDS011;10318;47.674;9.052;2022-08-23T05:27:23;7.10;;;3.60;;
20320;SDS011;10318;47.674;9.052;2022-08-23T05:29:50;9.32;;;3.63;;
20320;SDS011;10318;47.674;9.052;2022-08-23T05:32:19;5.00;;;3.25;;
20320;SDS011;10318;47.674;9.052;2022-08-23T05:34:46;4.80;;;3.55;;
20320;SDS011;10318;47.674;9.052;2022-08-23T05:37:14;4.93;;;3.40;;
20320;SDS011;10318;47.674;9.052;2022-08-23T05:39:41;5.90;;;3.45;;
20320;SDS011;10318;47.674;9.052;2022-08-23T05:42:10;5.60;;;3.42;;
20320;SDS011;10318;47.674;9.052;2022-08-23T05:44:37;5.90;;;3.83;;
20320;SDS011;10318;47.674;9.052;2022-08-23T05:47:07;6.10;;;3.47;;
20320;SDS011;10318;47.674;9.052;2022-08-23T05:49:57;4.60;;;3.45;;
20320;SDS011;10318;47.674;9.052;2022-08-23T05:52:26;6.05;;;3.20;;
20320;SDS011;10318;47.674;9.052;2022-08-23T05:54:53;6.28;;;3.17;;
20320;SDS011;10318;47.674;9.052;2022-08-23T05:57:40;6.82;;;3.88;;
20320;SDS011;10318;47.674;9.052;2022-08-23T06:00:08;5.72;;;4.10;;
20320;SDS011;10318;47.674;9.052;2022-08-23T06:02:51;8.75;;;4.50;;
20320;SDS011;10318;47.674;9.052;2022-08-23T06:05:18;6.03;;;4.15;;
20320;SDS011;10318;47.674;9.052;2022-08-23T06:07:47;6.45;;;3.85;;
20320;SDS011;10318;47.674;9.052;2022-08-23T06:10:16;6.40;;;4.10;;
20320;SDS011;10318;47.674;9.052;2022-08-23T06:12:50;5.40;;;3.53;;
20320;SDS011;10318;47.674;9.052;2022-08-23T06:15:18;8.27;;;4.18;;
20320;SDS011;10318;47.674;9.052;2022-08-23T06:17:45;6.93;;;4.18;;
20320;SDS011;10318;47.674;9.052;2022-08-23T06:20:12;9.88;;;4.20;;
20320;SDS011;10318;47.674;9.052;2022-08-23T06:23:04;5.50;;;4.07;;
20320;SDS011;10318;47.674;9.052;2022-08-23T06:25:35;7.55;;;4.25;;
20320;SDS011;10318;47.674;9.052;2022-08-23T06:28:08;6.20;;;4.60;;
20320;SDS011;10318;47.674;9.052;2022-08-23T06:30:37;11.15;;;4.10;;
20320;SDS011;10318;47.674;9.052;2022-08-23T06:33:22;9.02;;;4.60;;
20320;SDS011;10318;47.674;9.052;2022-08-23T06:36:15;6.57;;;4.57;;
20320;SDS011;10318;47.674;9.052;2022-08-23T06:38:55;9.00;;;4.65;;
20320;SDS011;10318;47.674;9.052;2022-08-23T06:42:02;6.65;;;4.32;;
20320;SDS011;10318;47.674;9.052;2022-08-23T06:44:47;6.53;;;4.28;;
20320;SDS011;10318;47.674;9.052;2022-08-23T06:47:29;5.65;;;4.65;;
20320;SDS011;10318;47.674;9.052;2022-08-23T06:49:57;7.40;;;4.82;;
20320;SDS011;10318;47.674;9.052;2022-08-23T06:52:48;6.68;;;4.22;;
20320;SDS011;10318;47.674;9.052;2022-08-23T06:55:26;6.72;;;4.50;;
20320;SDS011;10318;47.674;9.052;2022-08-23T06:58:20;6.43;;;4.55;;
20320;SDS011;10318;47.674;9.052;2022-08-23T07:01:21;8.73;;;5.00;;
20320;SDS011;10318;47.674;9.052;2022-08-23T07:04:30;9.77;;;4.70;;
20320;SDS011;10318;47.674;9.052;2022-08-23T07:07:32;12.77;;;4.50;;
20320;SDS011;10318;47.674;9.052;2022-08-23T07:10:09;8.82;;;4.78;;
20320;SDS011;10318;47.674;9.052;2022-08-23T07:12:37;7.35;;;4.57;;
20320;SDS011;10318;47.674;9.052;2022-08-23T07:15:04;8.95;;;4.85;;
20320;SDS011;10318;47.674;9.052;2022-08-23T07:17:30;6.55;;;4.63;;
20320;SDS011;10318;47.674;9.052;2022-08-23T07:19:57;9.65;;;4.22;;
20320;SDS011;10318;47.674;9.052;2022-08-23T07:22:24;5.10;;;4.43;;
20320;SDS011;10318;47.674;9.052;2022-08-23T07:24:51;7.28;;;4.60;;
20320;SDS011;10318;47.674;9.052;2022-08-23T07:27:20;5.10;;;4.55;;
20320;SDS011;10318;47.674;9.052;2022-08-23T07:29:58;6.90;;;4.32;;
20320;SDS011;10318;47.674;9.052;2022-08-23T07:32:25;8.95;;;4.72;;
20320;SDS011;10318;47.674;9.052;2022-08-23T07:34:54;7.20;;;4.53;;
20320;SDS011;10318;47.674;9.052;2022-08-23T07:37:22;8.02;;;4.10;;
20320;SDS011;10318;47.674;9.052;2022-08-23T07:39:49;8.38;;;4.18;;
20320;SDS011;10318;47.674;9.052;2022-08-23T07:42:16;5.97;;;4.40;;
20320;SDS011;10318;47.674;9.052;2022-08-23T07:44:53;8.50;;;4.18;;
20320;SDS011;10318;47.674;9.052;2022-08-23T07:47:23;10.30;;;4.50;;
20320;SDS011;10318;47.674;9.052;2022-08-23T07:49:53;7.80;;;3.90;;
20320;SDS011;10318;47.674;9.052;2022-08-23T07:52:20;5.78;;;4.30;;
20320;SDS011;10318;47.674;9.052;2022-08-23T07:54:47;7.22;;;4.75;;
20320;SDS011;10318;47.674;9.052;2022-08-23T07:57:33;6.30;;;3.55;;
20320;SDS011;10318;47.674;9.052;2022-08-23T08:00:10;9.10;;;4.15;;
20320;SDS011;10318;47.674;9.052;2022-08-23T08:03:03;8.07;;;4.18;;
20320;SDS011;10318;47.674;9.052;2022-08-23T08:05:46;5.47;;;3.97;;
20320;SDS011;10318;47.674;9.052;2022-08-23T08:08:13;4.72;;;3.70;;
20320;SDS011;10318;47.674;9.052;2022-08-23T08:10:40;9.13;;;4.40;;
20320;SDS011;10318;47.674;9.052;2022-08-23T08:13:09;5.30;;;4.25;;
20320;SDS011;10318;47.674;9.052;2022-08-23T08:15:39;8.20;;;4.25;;
20320;SDS011;10318;47.674;9.052;2022-08-23T08:18:09;6.53;;;4.72;;
20320;SDS011;10318;47.674;9.052;2022-08-23T08:20:54;7.07;;;4.25;;
20320;SDS011;10318;47.674;9.052;2022-08-23T08:23:40;7.35;;;4.18;;
20320;SDS011;10318;47.674;9.052;2022-08-23T08:26:31;6.45;;;4.20;;
20320;SDS011;10318;47.674;9.052;2022-08-23T08:28:58;6.13;;;4.10;;
20320;SDS011;10318;47.674;9.052;2022-08-23T08:31:25;6.75;;;3.92;;
20320;SDS011;10318;47.674;9.052;2022-08-23T08:33:53;5.55;;;3.85;;
20320;SDS011;10318;47.674;9.052;2022-08-23T08:39:11;4.30;;;3.70;;
20320;SDS011;10318;47.674;9.052;2022-08-23T08:41:42;8.40;;;3.72;;
20320;SDS011;10318;47.674;9.052;2022-08-23T08:47:51;6.63;;;4.45;;
20320;SDS011;10318;47.674;9.052;2022-08-23T08:49:54;6.43;;;3.97;;
20320;SDS011;10318;47.674;9.052;2022-08-23T08:52:25;8.70;;;4.25;;
20320;SDS011;10318;47.674;9.052;2022-08-23T08:55:02;9.48;;;4.10;;
20320;SDS011;10318;47.674;9.052;2022-08-23T08:57:29;6.07;;;3.88;;
20320;SDS011;10318;47.674;9.052;2022-08-23T08:59:58;5.55;;;3.95;;
20320;SDS011;10318;47.674;9.052;2022-08-23T09:02:30;6.88;;;4.30;;
20320;SDS011;10318;47.674;9.052;2022-08-23T09:05:06;6.57;;;4.18;;
20320;SDS011;10318;47.674;9.052;2022-08-23T09:17:43;7.30;;;3.47;;
20320;SDS011;10318;47.674;9.052;2022-08-23T09:20:13;5.80;;;3.60;;
20320;SDS011;10318;47.674;9.052;2022-08-23T09:22:45;5.72;;;3.70;;
20320;SDS011;10318;47.674;9.052;2022-08-23T09:25:24;5.32;;;3.83;;
20320;SDS011;10318;47.674;9.052;2022-08-23T09:27:59;7.60;;;3.50;;
20320;SDS011;10318;47.674;9.052;2022-08-23T09:33:16;6.35;;;3.53;;
20320;SDS011;10318;47.674;9.052;2022-08-23T09:35:43;6.00;;;3.40;;
20320;SDS011;10318;47.674;9.052;2022-08-23T09:38:18;7.60;;;3.63;;
20320;SDS011;10318;47.674;9.052;2022-08-23T09:40:50;5.82;;;3.50;;
20320;SDS011;10318;47.674;9.052;2022-08-23T09:43:24;5.20;;;3.10;;
20320;SDS011;10318;47.674;9.052;2022-08-23T09:45:55;5.47;;;4.10;;
20320;SDS011;10318;47.674;9.052;2022-08-23T09:48:38;5.78;;;3.40;;
20320;SDS011;10318;47.674;9.052;2022-08-23T09:51:14;5.18;;;3.70;;
20320;SDS011;10318;47.674;9.052;2022-08-23T09:53:50;4.97;;;3.40;;
20320;SDS011;10318;47.674;9.052;2022-08-23T09:56:22;6.38;;;3.50;;
20320;SDS011;10318;47.674;9.052;2022-08-23T09:58:50;7.40;;;3.55;;
20320;SDS011;10318;47.674;9.052;2022-08-23T10:01:33;5.55;;;3.28;;
20320;SDS011;10318;47.674;9.052;2022-08-23T10:04:11;5.55;;;3.33;;
20320;SDS011;10318;47.674;9.052;2022-08-23T10:06:39;4.03;;;2.90;;
20320;SDS011;10318;47.674;9.052;2022-08-23T10:09:08;4.63;;;3.15;;
20320;SDS011;10318;47.674;9.052;2022-08-23T10:11:42;7.93;;;3.55;;
20320;SDS011;10318;47.674;9.052;2022-08-23T10:14:14;4.70;;;3.25;;
20320;SDS011;10318;47.674;9.052;2022-08-23T10:21:59;2.95;;;2.25;;
20320;SDS011;10318;47.674;9.052;2022-08-23T10:32:58;4.18;;;2.70;;
20320;SDS011;10318;47.674;9.052;2022-08-23T10:45:52;5.97;;;2.40;;
20320;SDS011;10318;47.674;9.052;2022-08-23T10:51:15;5.38;;;2.00;;
20320;SDS011;10318;47.674;9.052;2022-08-23T10:53:51;4.22;;;1.65;;
20320;SDS011;10318;47.674;9.052;2022-08-23T10:56:23;5.55;;;1.95;;
20320;SDS011;10318;47.674;9.052;2022-08-23T10:59:16;3.65;;;1.73;;
20320;SDS011;10318;47.674;9.052;2022-08-23T11:07:32;3.63;;;1.70;;
20320;SDS011;10318;47.674;9.052;2022-08-23T11:10:12;2.75;;;1.30;;
20320;SDS011;10318;47.674;9.052;2022-08-23T11:12:59;3.55;;;1.67;;
20320;SDS011;10318;47.674;9.052;2022-08-23T11:18:00;2.28;;;1.50;;
20320;SDS011;10318;47.674;9.052;2022-08-23T11:23:17;4.00;;;1.52;;
20320;SDS011;10318;47.674;9.052;2022-08-23T11:26:01;5.28;;;1.58;;
20320;SDS011;10318;47.674;9.052;2022-08-23T11:33:35;3.28;;;1.40;;
20320;SDS011;10318;47.674;9.052;2022-08-23T11:43:46;7.28;;;1.58;;
20320;SDS011;10318;47.674;9.052;2022-08-23T11:46:28;3.65;;;1.48;;
20320;SDS011;10318;47.674;9.052;2022-08-23T12:00:03;3.88;;;1.55;;
20320;SDS011;10318;47.674;9.052;2022-08-23T12:05:26;3.30;;;1.63;;
20320;SDS011;10318;47.674;9.052;2022-08-23T12:23:53;2.42;;;1.48;;
20320;SDS011;10318;47.674;9.052;2022-08-23T12:28:53;3.65;;;1.67;;
20320;SDS011;10318;47.674;9.052;2022-08-23T12:39:03;3.72;;;1.30;;
20320;SDS011;10318;47.674;9.052;2022-08-23T12:41:54;4.82;;;1.52;;
20320;SDS011;10318;47.674;9.052;2022-08-23T12:44:22;2.85;;;1.50;;
20320;SDS011;10318;47.674;9.052;2022-08-23T12:46:49;2.70;;;1.52;;
20320;SDS011;10318;47.674;9.052;2022-08-23T12:49:29;3.72;;;1.65;;
20320;SDS011;10318;47.674;9.052;2022-08-23T12:51:56;4.07;;;1.60;;
20320;SDS011;10318;47.674;9.052;2022-08-23T12:54:35;4.18;;;1.60;;
20320;SDS011;10318;47.674;9.052;2022-08-23T12:57:03;4.20;;;1.50;;
20320;SDS011;10318;47.674;9.052;2022-08-23T13:00:20;2.92;;;1.50;;
20320;SDS011;10318;47.674;9.052;2022-08-23T13:02:48;5.55;;;1.73;;
20320;SDS011;10318;47.674;9.052;2022-08-23T13:05:26;2.92;;;1.60;;
20320;SDS011;10318;47.674;9.052;2022-08-23T13:07:55;2.80;;;1.50;;
20320;SDS011;10318;47.674;9.052;2022-08-23T13:10:23;3.40;;;1.60;;
20320;SDS011;10318;47.674;9.052;2022-08-23T13:12:50;6.55;;;1.70;;
20320;SDS011;10318;47.674;9.052;2022-08-23T13:18:07;7.05;;;2.05;;
20320;SDS011;10318;47.674;9.052;2022-08-23T13:20:33;5.88;;;1.45;;
20320;SDS011;10318;47.674;9.052;2022-08-23T13:23:05;4.57;;;1.58;;
20320;SDS011;10318;47.674;9.052;2022-08-23T13:25:33;3.75;;;1.45;;
20320;SDS011;10318;47.674;9.052;2022-08-23T13:28:05;3.33;;;1.40;;
20320;SDS011;10318;47.674;9.052;2022-08-23T13:30:33;2.78;;;1.70;;
20320;SDS011;10318;47.674;9.052;2022-08-23T13:35:43;7.38;;;2.00;;
20320;SDS011;10318;47.674;9.052;2022-08-23T13:38:17;2.35;;;1.70;;
20320;SDS011;10318;47.674;9.052;2022-08-23T13:45:57;1.73;;;1.38;;
20320;SDS011;10318;47.674;9.052;2022-08-23T13:48:26;2.20;;;1.52;;
20320;SDS011;10318;47.674;9.052;2022-08-23T13:50:53;3.53;;;1.48;;
20320;SDS011;10318;47.674;9.052;2022-08-23T13:53:20;3.40;;;1.80;;
20320;SDS011;10318;47.674;9.052;2022-08-23T13:55:49;2.80;;;1.60;;
20320;SDS011;10318;47.674;9.052;2022-08-23T13:58:24;3.08;;;1.73;;
20320;SDS011;10318;47.674;9.052;2022-08-23T14:00:51;3.65;;;1.60;;
20320;SDS011;10318;47.674;9.052;2022-08-23T14:03:21;4.38;;;1.60;;
20320;SDS011;10318;47.674;9.052;2022-08-23T14:05:48;5.63;;;1.80;;
20320;SDS011;10318;47.674;9.052;2022-08-23T14:08:15;2.03;;;1.55;;
20320;SDS011;10318;47.674;9.052;2022-08-23T14:10:42;3.03;;;1.60;;
20320;SDS011;10318;47.674;9.052;2022-08-23T14:13:09;2.55;;;1.33;;
20320;SDS011;10318;47.674;9.052;2022-08-23T14:15:37;2.60;;;1.70;;
20320;SDS011;10318;47.674;9.052;2022-08-23T14:18:22;4.68;;;1.60;;
20320;SDS011;10318;47.674;9.052;2022-08-23T14:20:48;3.67;;;1.58;;
20320;SDS011;10318;47.674;9.052;2022-08-23T14:23:16;1.80;;;1.15;;
20320;SDS011;10318;47.674;9.052;2022-08-23T14:25:44;3.38;;;1.65;;
20320;SDS011;10318;47.674;9.052;2022-08-23T14:28:12;7.53;;;1.60;;
20320;SDS011;10318;47.674;9.052;2022-08-23T14:30:39;3.60;;;1.98;;
20320;SDS011;10318;47.674;9.052;2022-08-23T14:33:06;1.65;;;1.25;;
20320;SDS011;10318;47.674;9.052;2022-08-23T14:35:32;2.38;;;1.48;;
20320;SDS011;10318;47.674;9.052;2022-08-23T14:37:59;4.82;;;1.63;;
20320;SDS011;10318;47.674;9.052;2022-08-23T14:40:29;2.38;;;1.40;;
20320;SDS011;10318;47.674;9.052;2022-08-23T14:42:55;3.03;;;1.50;;
20320;SDS011;10318;47.674;9.052;2022-08-23T14:45:22;5.03;;;1.65;;
20320;SDS011;10318;47.674;9.052;2022-08-23T14:47:49;3.15;;;1.35;;
20320;SDS011;10318;47.674;9.052;2022-08-23T14:50:16;3.53;;;1.50;;
20320;SDS011;10318;47.674;9.052;2022-08-23T14:52:43;3.30;;;1.25;;
20320;SDS011;10318;47.674;9.052;2022-08-23T14:55:11;2.25;;;1.40;;
20320;SDS011;10318;47.674;9.052;2022-08-23T14:57:38;4.72;;;1.52;;
20320;SDS011;10318;47.674;9.052;2022-08-23T15:00:06;2.40;;;1.40;;
20320;SDS011;10318;47.674;9.052;2022-08-23T15:02:34;3.45;;;1.50;;
20320;SDS011;10318;47.674;9.052;2022-08-23T15:05:02;2.63;;;1.33;;
20320;SDS011;10318;47.674;9.052;2022-08-23T15:07:29;6.50;;;1.80;;
20320;SDS011;10318;47.674;9.052;2022-08-23T15:09:55;2.47;;;1.48;;
20320;SDS011;10318;47.674;9.052;2022-08-23T15:12:22;4.38;;;1.63;;
20320;SDS011;10318;47.674;9.052;2022-08-23T15:15:14;2.60;;;1.55;;
20320;SDS011;10318;47.674;9.052;2022-08-23T15:17:48;5.93;;;2.35;;
20320;SDS011;10318;47.674;9.052;2022-08-23T15:20:18;3.90;;;1.50;;
20320;SDS011;10318;47.674;9.052;2022-08-23T15:22:45;2.22;;;1.48;;
20320;SDS011;10318;47.674;9.052;2022-08-23T15:25:20;2.35;;;1.40;;
20320;SDS011;10318;47.674;9.052;2022-08-23T15:27:47;4.68;;;1.23;;
20320;SDS011;10318;47.674;9.052;2022-08-23T15:30:16;2.22;;;1.30;;
20320;SDS011;10318;47.674;9.052;2022-08-23T15:32:43;3.92;;;1.45;;
20320;SDS011;10318;47.674;9.052;2022-08-23T15:35:29;2.70;;;1.20;;
20320;SDS011;10318;47.674;9.052;2022-08-23T15:37:58;5.72;;;1.40;;
20320;SDS011;10318;47.674;9.052;2022-08-23T15:40:25;1.60;;;1.20;;
20320;SDS011;10318;47.674;9.052;2022-08-23T15:42:52;2.58;;;1.38;;
20320;SDS011;10318;47.674;9.052;2022-08-23T15:45:19;6.43;;;1.65;;
20320;SDS011;10318;47.674;9.052;2022-08-23T15:47:53;3.72;;;1.73;;
20320;SDS011;10318;47.674;9.052;2022-08-23T15:50:21;2.38;;;1.35;;
20320;SDS011;10318;47.674;9.052;2022-08-23T15:52:49;2.00;;;1.02;;
20320;SDS011;10318;47.674;9.052;2022-08-23T15:55:16;4.88;;;1.40;;
20320;SDS011;10318;47.674;9.052;2022-08-23T15:57:46;1.70;;;1.25;;
20320;SDS011;10318;47.674;9.052;2022-08-23T16:00:14;1.70;;;1.17;;
20320;SDS011;10318;47.674;9.052;2022-08-23T16:02:43;2.55;;;1.30;;
20320;SDS011;10318;47.674;9.052;2022-08-23T16:05:29;2.22;;;1.42;;
20320;SDS011;10318;47.674;9.052;2022-08-23T16:07:56;2.10;;;1.27;;
20320;SDS011;10318;47.674;9.052;2022-08-23T16:10:25;2.08;;;1.20;;
20320;SDS011;10318;47.674;9.052;2022-08-23T16:12:53;4.47;;;1.48;;
20320;SDS011;10318;47.674;9.052;2022-08-23T16:15:20;1.48;;;1.30;;
20320;SDS011;10318;47.674;9.052;2022-08-23T16:17:47;3.50;;;1.00;;
20320;SDS011;10318;47.674;9.052;2022-08-23T16:20:14;3.33;;;1.17;;
20320;SDS011;10318;47.674;9.052;2022-08-23T16:22:41;2.10;;;1.25;;
20320;SDS011;10318;47.674;9.052;2022-08-23T16:25:07;3.22;;;1.27;;
20320;SDS011;10318;47.674;9.052;2022-08-23T16:27:34;3.75;;;1.35;;
20320;SDS011;10318;47.674;9.052;2022-08-23T16:30:02;3.22;;;1.10;;
20320;SDS011;10318;47.674;9.052;2022-08-23T16:32:29;3.35;;;1.20;;
20320;SDS011;10318;47.674;9.052;2022-08-23T16:34:55;2.25;;;1.20;;
20320;SDS011;10318;47.674;9.052;2022-08-23T16:37:22;3.53;;;1.30;;
20320;SDS011;10318;47.674;9.052;2022-08-23T16:39:49;5.05;;;1.30;;
20320;SDS011;10318;47.674;9.052;2022-08-23T16:42:15;2.10;;;1.20;;
20320;SDS011;10318;47.674;9.052;2022-08-23T16:44:43;2.97;;;1.10;;
20320;SDS011;10318;47.674;9.052;2022-08-23T16:47:10;3.10;;;1.17;;
20320;SDS011;10318;47.674;9.052;2022-08-23T16:49:38;4.00;;;1.30;;
20320;SDS011;10318;47.674;9.052;2022-08-23T16:52:05;2.20;;;1.00;;
20320;SDS011;10318;47.674;9.052;2022-08-23T16:54:32;1.75;;;1.30;;
20320;SDS011;10318;47.674;9.052;2022-08-23T16:56:59;2.80;;;1.30;;
20320;SDS011;10318;47.674;9.052;2022-08-23T16:59:26;2.95;;;1.30;;
20320;SDS011;10318;47.674;9.052;2022-08-23T17:01:57;3.60;;;1.40;;
20320;SDS011;10318;47.674;9.052;2022-08-23T17:04:25;3.03;;;1.40;;
20320;SDS011;10318;47.674;9.052;2022-08-23T17:06:56;3.85;;;1.30;;
20320;SDS011;10318;47.674;9.052;2022-08-23T17:09:24;3.00;;;1.35;;
20320;SDS011;10318;47.674;9.052;2022-08-23T17:11:51;4.22;;;1.45;;
20320;SDS011;10318;47.674;9.052;2022-08-23T17:14:18;4.05;;;1.25;;
20320;SDS011;10318;47.674;9.052;2022-08-23T17:16:45;3.80;;;1.30;;